createdAt,value
2023-01-03T00:01:25.194Z,70.84
2023-01-03T00:03:54.153Z,70.83
2023-01-03T00:06:23.496Z,70.81
2023-01-03T00:08:51.532Z,70.84
2023-01-03T00:11:41.839Z,70.90
2023-01-03T00:14:12.450Z,70.81
2023-01-03T00:16:44.269Z,70.81
2023-01-03T00:19:16.743Z,70.90
2023-01-03T00:21:45.786Z,70.83
2023-01-03T00:24:14.184Z,70.88
2023-01-03T00:26:43.814Z,70.82
2023-01-03T00:29:12.310Z,70.74
2023-01-03T00:31:44.130Z,70.69
2023-01-03T00:34:12.850Z,70.80
2023-01-03T00:36:41.027Z,70.80
2023-01-03T00:39:17.477Z,70.93
2023-01-03T00:41:47.010Z,70.84
2023-01-03T00:44:15.440Z,70.97
2023-01-03T00:46:45.391Z,70.90
2023-01-03T00:49:15.733Z,71.05
2023-01-03T00:51:46.883Z,70.97
2023-01-03T00:54:15.256Z,70.89
2023-01-03T00:56:45.899Z,70.96
2023-01-03T00:59:16.483Z,70.98
2023-01-03T01:01:47.521Z,70.93
2023-01-03T01:04:17.117Z,70.86
2023-01-03T01:06:49.405Z,70.80
2023-01-03T01:09:19.289Z,70.86
2023-01-03T01:11:48.059Z,71.03
2023-01-03T01:14:22.795Z,70.99
2023-01-03T01:16:51.667Z,71.03
2023-01-03T01:19:21.820Z,71.12
2023-01-03T01:21:49.548Z,71.17
2023-01-03T01:24:18.208Z,71.15
2023-01-03T01:26:46.427Z,71.19
2023-01-03T01:29:15.466Z,71.15
2023-01-03T01:31:44.970Z,71.05
2023-01-03T01:34:19.488Z,71.21
2023-01-03T01:36:47.944Z,71.29
2023-01-03T01:39:20.126Z,71.23
2023-01-03T01:42:07.617Z,71.18
2023-01-03T01:44:55.639Z,71.13
2023-01-03T01:47:27.722Z,71.23
2023-01-03T01:49:58.690Z,71.29
2023-01-03T01:52:26.789Z,71.20
2023-01-03T01:54:55.149Z,71.18
2023-01-03T01:57:24.445Z,71.10
2023-01-03T01:59:52.368Z,71.16
2023-01-03T02:02:23.628Z,71.13
2023-01-03T02:04:53.326Z,71.01
2023-01-03T02:07:22.983Z,71.09
2023-01-03T02:09:54.219Z,71.19
2023-01-03T02:12:49.851Z,71.12
2023-01-03T02:15:22.425Z,71.19
2023-01-03T02:17:56.031Z,71.08
2023-01-03T02:20:31.126Z,71.20
2023-01-03T02:23:16.655Z,71.05
2023-01-03T02:26:11.814Z,71.12
2023-01-03T02:28:53.671Z,71.18
2023-01-03T02:31:26.239Z,71.13
2023-01-03T02:34:01.430Z,71.25
2023-01-03T02:36:34.298Z,71.09
2023-01-03T02:39:04.565Z,71.06
2023-01-03T02:41:38.852Z,71.03
2023-01-03T02:44:10.680Z,71.03
2023-01-03T02:46:42.780Z,71.04
2023-01-03T02:49:17.231Z,71.13
2023-01-03T02:51:51.210Z,71.01
2023-01-03T02:54:25.577Z,71.04
2023-01-03T02:56:56.958Z,71.01
2023-01-03T02:59:30.488Z,71.12
2023-01-03T03:02:02.472Z,71.01
2023-01-03T03:04:31.011Z,70.94
2023-01-03T03:07:06.071Z,71.04
2023-01-03T03:09:54.964Z,71.17
2023-01-03T03:12:43.894Z,71.11
2023-01-03T03:15:12.456Z,71.01
2023-01-03T03:17:41.391Z,71.06
2023-01-03T03:20:32.616Z,71.03
2023-01-03T03:23:22.380Z,70.99
2023-01-03T03:25:52.407Z,71.06
2023-01-03T03:28:35.170Z,71.15
2023-01-03T03:31:06.136Z,71.22
2023-01-03T03:33:36.759Z,71.18
2023-01-03T03:36:06.454Z,71.13
2023-01-03T03:38:37.081Z,71.22
2023-01-03T03:41:29.836Z,71.06
2023-01-03T03:44:22.460Z,71.05
2023-01-03T03:46:55.197Z,71.10
2023-01-03T03:49:38.973Z,71.05
2023-01-03T03:52:08.977Z,71.14
2023-01-03T03:54:38.543Z,71.02
2023-01-03T03:57:24.268Z,71.08
2023-01-03T03:59:53.865Z,71.09
2023-01-03T04:02:26.518Z,71.11
2023-01-03T04:04:59.232Z,71.22
2023-01-03T04:07:27.217Z,71.27
2023-01-03T04:09:54.973Z,71.32
2023-01-03T04:12:25.292Z,71.23
2023-01-03T04:14:55.110Z,71.29
2023-01-03T04:17:25.186Z,71.46
2023-01-03T04:19:54.628Z,71.30
2023-01-03T04:22:24.784Z,71.17
2023-01-03T04:24:52.488Z,71.15
2023-01-03T04:27:23.433Z,71.28
2023-01-03T04:29:51.730Z,71.05
2023-01-03T04:32:22.965Z,71.02
2023-01-03T04:34:52.915Z,71.16
2023-01-03T04:37:22.766Z,71.13
2023-01-03T04:39:52.824Z,71.21
2023-01-03T04:42:41.241Z,71.20
2023-01-03T04:45:10.782Z,71.11
2023-01-03T04:47:38.552Z,71.08
2023-01-03T04:50:09.030Z,71.25
2023-01-03T04:52:36.789Z,71.27
2023-01-03T04:55:05.080Z,71.31
2023-01-03T04:57:32.748Z,71.28
2023-01-03T05:00:04.545Z,71.41
2023-01-03T05:02:32.529Z,71.43
2023-01-03T05:05:00.443Z,71.41
2023-01-03T05:07:28.174Z,71.44
2023-01-03T05:09:57.536Z,71.32
2023-01-03T05:12:26.845Z,71.39
2023-01-03T05:14:58.824Z,71.41
2023-01-03T05:17:29.527Z,71.31
2023-01-03T05:20:17.055Z,71.30
2023-01-03T05:23:03.329Z,71.32
2023-01-03T05:25:49.589Z,71.31
2023-01-03T05:28:18.154Z,71.50
2023-01-03T05:30:47.391Z,71.47
2023-01-03T05:33:15.624Z,71.47
2023-01-03T05:35:46.186Z,71.49
2023-01-03T05:38:14.311Z,71.53
2023-01-03T05:40:42.348Z,71.56
2023-01-03T05:43:10.399Z,71.46
2023-01-03T05:45:38.727Z,71.51
2023-01-03T05:48:10.944Z,71.40
2023-01-03T05:50:38.715Z,71.40
2023-01-03T05:53:07.646Z,71.49
2023-01-03T05:55:37.170Z,71.33
2023-01-03T05:58:06.483Z,71.33
2023-01-03T06:00:34.640Z,71.42
2023-01-03T06:03:02.524Z,71.36
2023-01-03T06:05:31.802Z,71.49
2023-01-03T06:08:01.001Z,71.49
2023-01-03T06:10:29.137Z,71.50
2023-01-03T06:12:57.062Z,71.50
2023-01-03T06:15:25.015Z,71.51
2023-01-03T06:17:57.205Z,71.58
2023-01-03T06:20:25.241Z,71.61
2023-01-03T06:22:53.804Z,71.63
2023-01-03T06:25:22.138Z,71.66
2023-01-03T06:27:50.552Z,71.65
2023-01-03T06:30:18.683Z,71.69
2023-01-03T06:32:46.992Z,71.68
2023-01-03T06:35:15.022Z,71.72
2023-01-03T06:37:42.846Z,71.75
2023-01-03T06:40:11.753Z,71.77
2023-01-03T06:42:39.626Z,71.86
2023-01-03T06:45:27.546Z,71.80
2023-01-03T06:48:13.867Z,71.87
2023-01-03T06:51:01.235Z,71.89
2023-01-03T06:53:32.503Z,71.90
2023-01-03T06:56:00.237Z,71.77
2023-01-03T06:58:28.040Z,71.93
2023-01-03T07:00:56.919Z,71.92
2023-01-03T07:03:24.762Z,71.83
2023-01-03T07:05:52.548Z,71.92
2023-01-03T07:08:21.988Z,71.90
2023-01-03T07:10:49.705Z,71.88
2023-01-03T07:13:36.211Z,71.85
2023-01-03T07:16:04.532Z,71.84
2023-01-03T07:18:33.481Z,71.97
2023-01-03T07:21:01.214Z,71.96
2023-01-03T07:23:29.160Z,71.88
2023-01-03T07:25:57.080Z,71.93
2023-01-03T07:28:24.773Z,71.97
2023-01-03T07:30:52.709Z,71.88
2023-01-03T07:33:21.193Z,71.99
2023-01-03T07:35:49.017Z,71.99
2023-01-03T07:38:17.084Z,72.11
2023-01-03T07:40:45.051Z,72.12
2023-01-03T07:43:31.541Z,72.04
2023-01-03T07:45:59.697Z,72.19
2023-01-03T07:48:27.612Z,72.17
2023-01-03T07:50:57.631Z,72.13
2023-01-03T07:53:25.948Z,72.23
2023-01-03T07:55:53.660Z,72.21
2023-01-03T07:58:21.858Z,72.27
2023-01-03T08:00:49.650Z,72.17
2023-01-03T08:03:17.487Z,72.31
2023-01-03T08:05:45.748Z,72.27
2023-01-03T08:08:13.565Z,72.25
2023-01-03T08:10:59.459Z,72.13
2023-01-03T08:13:27.243Z,72.37
2023-01-03T08:15:55.867Z,72.31
2023-01-03T08:18:25.105Z,72.37
2023-01-03T08:20:54.839Z,72.40
2023-01-03T08:23:22.630Z,72.39
2023-01-03T08:25:50.349Z,72.35
2023-01-03T08:28:18.414Z,72.22
2023-01-03T08:30:47.311Z,72.07
2023-01-03T08:33:16.533Z,72.09
2023-01-03T08:35:46.415Z,72.11
2023-01-03T08:38:16.456Z,72.18
2023-01-03T08:40:45.121Z,72.17
2023-01-03T08:43:14.537Z,72.17
2023-01-03T08:45:42.382Z,72.23
2023-01-03T08:48:12.808Z,72.29
2023-01-03T08:50:41.332Z,72.33
2023-01-03T08:53:09.243Z,72.33
2023-01-03T08:55:36.974Z,72.45
2023-01-03T08:58:09.013Z,72.31
2023-01-03T09:00:37.043Z,72.41
2023-01-03T09:03:05.100Z,72.28
2023-01-03T09:05:34.172Z,72.33
2023-01-03T09:08:02.465Z,72.26
2023-01-03T09:10:30.222Z,72.33
2023-01-03T09:12:57.993Z,72.23
2023-01-03T09:15:25.631Z,72.31
2023-01-03T09:17:53.359Z,72.29
2023-01-03T09:20:22.122Z,72.20
2023-01-03T09:22:50.306Z,72.14
2023-01-03T09:25:18.512Z,72.02
2023-01-03T09:27:47.389Z,72.00
2023-01-03T09:30:16.067Z,72.05
2023-01-03T09:32:44.410Z,72.04
2023-01-03T09:35:12.152Z,72.05
2023-01-03T09:37:43.956Z,72.13
2023-01-03T09:40:15.155Z,71.93
2023-01-03T09:43:01.930Z,71.96
2023-01-03T09:45:32.265Z,71.81
2023-01-03T09:48:01.543Z,72.05
2023-01-03T09:50:50.813Z,71.99
2023-01-03T09:53:40.508Z,71.83
2023-01-03T09:56:28.811Z,71.82
2023-01-03T09:59:17.931Z,71.93
2023-01-03T10:02:10.023Z,71.93
2023-01-03T10:04:55.028Z,72.26
2023-01-03T10:07:31.517Z,72.57
2023-01-03T10:10:10.489Z,72.32
2023-01-03T10:12:45.645Z,72.11
2023-01-03T10:15:21.101Z,71.95
2023-01-03T10:17:57.119Z,71.94
2023-01-03T10:20:39.292Z,71.91
2023-01-03T10:23:10.063Z,70.92
2023-01-03T10:25:39.710Z,70.75
2023-01-03T10:28:12.536Z,70.56
2023-01-03T10:30:57.407Z,70.14
2023-01-03T10:33:30.651Z,70.30
2023-01-03T10:36:01.525Z,70.20
2023-01-03T10:38:36.718Z,70.55
2023-01-03T10:41:15.444Z,69.79
2023-01-03T10:43:44.485Z,69.43
2023-01-03T10:46:18.169Z,69.31
2023-01-03T10:51:42.473Z,69.01
2023-01-03T10:54:13.133Z,68.93
2023-01-03T10:56:41.116Z,69.23
2023-01-03T10:59:13.157Z,69.04
2023-01-03T11:01:55.435Z,68.61
2023-01-03T11:04:23.636Z,67.99
2023-01-03T11:06:59.472Z,67.39
2023-01-03T11:09:29.068Z,67.83
2023-01-03T11:12:02.685Z,67.97
2023-01-03T11:14:30.591Z,67.75
2023-01-03T11:17:03.052Z,67.36
2023-01-03T11:19:32.516Z,67.19
2023-01-03T11:22:11.375Z,67.09
2023-01-03T11:24:46.409Z,67.25
2023-01-03T11:27:19.421Z,67.69
2023-01-03T11:29:51.363Z,68.01
2023-01-03T11:32:33.806Z,67.84
2023-01-03T11:35:22.851Z,68.10
2023-01-03T11:37:55.827Z,68.25
2023-01-03T11:40:28.096Z,68.04
2023-01-03T11:43:04.263Z,68.04
2023-01-03T11:45:48.109Z,68.02
2023-01-03T11:48:34.149Z,68.06
2023-01-03T11:51:08.062Z,68.03
2023-01-03T11:53:37.209Z,68.21
2023-01-03T11:56:20.601Z,68.41
2023-01-03T11:59:03.812Z,68.53
2023-01-03T12:01:46.139Z,68.65
2023-01-03T12:04:23.434Z,68.61
2023-01-03T12:07:21.545Z,68.81
2023-01-03T12:09:58.056Z,68.82
2023-01-03T12:12:37.083Z,68.63
2023-01-03T12:15:16.887Z,68.46
2023-01-03T12:17:48.596Z,68.52
2023-01-03T12:20:20.604Z,68.25
2023-01-03T12:22:54.052Z,68.31
2023-01-03T12:25:35.910Z,68.12
2023-01-03T12:28:25.253Z,68.39
2023-01-03T12:30:57.768Z,68.31
2023-01-03T12:33:33.377Z,68.33
2023-01-03T12:36:06.746Z,68.26
2023-01-03T12:38:39.891Z,68.36
2023-01-03T12:41:14.157Z,68.45
2023-01-03T12:43:46.511Z,68.59
2023-01-03T12:46:24.973Z,68.58
2023-01-03T12:49:01.653Z,68.60
2023-01-03T12:51:31.673Z,68.59
2023-01-03T12:54:12.780Z,68.62
2023-01-03T12:57:00.499Z,68.65
2023-01-03T12:59:45.000Z,68.69
2023-01-03T13:02:23.958Z,68.57
2023-01-03T13:04:54.492Z,68.74
2023-01-03T13:07:27.574Z,68.47
2023-01-03T13:10:01.466Z,68.50
2023-01-03T13:12:31.957Z,68.50
2023-01-03T13:15:14.897Z,68.49
2023-01-03T13:17:44.211Z,68.50
2023-01-03T13:20:25.649Z,68.48
2023-01-03T13:22:54.335Z,68.48
2023-01-03T13:25:38.113Z,68.39
2023-01-03T13:28:20.538Z,68.42
2023-01-03T13:31:10.744Z,68.29
2023-01-03T13:33:54.806Z,68.38
2023-01-03T13:36:50.559Z,68.19
2023-01-03T13:39:38.018Z,68.36
2023-01-03T13:42:06.506Z,68.45
2023-01-03T13:44:34.476Z,68.41
2023-01-03T13:47:03.567Z,68.24
2023-01-03T13:49:36.171Z,68.37
2023-01-03T13:52:06.738Z,68.41
2023-01-03T13:54:35.760Z,68.41
2023-01-03T13:57:06.474Z,68.42
2023-01-03T13:59:42.174Z,68.36
2023-01-03T14:02:27.354Z,68.40
2023-01-03T14:05:18.235Z,68.44
2023-01-03T14:08:01.716Z,68.44
2023-01-03T14:10:32.944Z,68.45
2023-01-03T14:13:15.456Z,68.46
2023-01-03T14:15:44.472Z,68.42
2023-01-03T14:18:20.589Z,68.46
2023-01-03T14:20:50.742Z,68.43
2023-01-03T14:26:13.368Z,68.35
2023-01-03T14:28:41.390Z,68.38
2023-01-03T14:31:20.086Z,68.46
2023-01-03T14:33:52.829Z,68.43
2023-01-03T14:36:20.644Z,68.43
2023-01-03T14:38:51.315Z,68.34
2023-01-03T14:41:33.293Z,68.51
2023-01-03T14:44:16.585Z,68.55
2023-01-03T14:46:52.611Z,68.49
2023-01-03T14:49:29.645Z,68.55
2023-01-03T14:52:00.359Z,68.55
2023-01-03T14:54:29.371Z,68.53
2023-01-03T14:57:00.010Z,68.52
2023-01-03T14:59:28.366Z,68.55
2023-01-03T15:02:03.994Z,68.47
2023-01-03T15:04:36.893Z,68.57
2023-01-03T15:07:13.465Z,68.39
2023-01-03T15:09:42.070Z,68.55
2023-01-03T15:12:14.264Z,68.56
2023-01-03T15:14:57.335Z,68.55
2023-01-03T15:17:27.739Z,68.61
2023-01-03T15:20:00.787Z,68.59
2023-01-03T15:22:33.090Z,68.60
2023-01-03T15:25:04.251Z,68.47
2023-01-03T15:27:33.812Z,68.50
2023-01-03T15:30:20.171Z,68.59
2023-01-03T15:33:00.028Z,68.51
2023-01-03T15:35:34.064Z,68.48
2023-01-03T15:38:03.674Z,68.57
2023-01-03T15:40:31.857Z,68.70
2023-01-03T15:43:24.249Z,68.51
2023-01-03T15:45:58.984Z,68.55
2023-01-03T15:48:28.028Z,68.68
2023-01-03T15:50:59.329Z,68.57
2023-01-03T15:53:29.972Z,68.66
2023-01-03T15:56:08.068Z,68.77
2023-01-03T15:58:36.800Z,68.76
2023-01-03T16:01:11.362Z,68.89
2023-01-03T16:03:40.654Z,68.97
2023-01-03T16:06:11.296Z,68.95
2023-01-03T16:08:43.537Z,69.01
2023-01-03T16:11:18.434Z,68.95
2023-01-03T16:14:01.435Z,68.97
2023-01-03T16:16:44.955Z,69.08
2023-01-03T16:19:17.227Z,68.92
2023-01-03T16:22:08.984Z,68.99
2023-01-03T16:24:39.138Z,68.92
2023-01-03T16:27:12.907Z,68.91
2023-01-03T16:29:42.096Z,68.95
2023-01-03T16:32:24.099Z,68.93
2023-01-03T16:34:54.563Z,68.96
2023-01-03T16:37:26.531Z,69.10
2023-01-03T16:39:54.594Z,69.05
2023-01-03T16:42:27.491Z,69.04
2023-01-03T16:44:56.348Z,69.02
2023-01-03T16:47:30.059Z,69.01
2023-01-03T16:50:01.025Z,68.91
2023-01-03T16:52:33.595Z,69.01
2023-01-03T16:55:07.372Z,69.03
2023-01-03T16:57:35.785Z,69.15
2023-01-03T17:00:14.005Z,69.15
2023-01-03T17:02:42.507Z,69.19
2023-01-03T17:05:12.124Z,69.17
2023-01-03T17:07:43.697Z,69.27
2023-01-03T17:10:19.939Z,69.25
2023-01-03T17:12:48.490Z,69.32
2023-01-03T17:15:18.632Z,69.25
2023-01-03T17:17:46.631Z,69.27
2023-01-03T17:20:17.519Z,69.22
2023-01-03T17:22:49.227Z,69.25
2023-01-03T17:25:17.330Z,69.17
2023-01-03T17:28:04.663Z,69.18
2023-01-03T17:30:37.075Z,69.14
2023-01-03T17:33:05.102Z,69.24
2023-01-03T17:35:39.624Z,69.19
2023-01-03T17:38:25.792Z,69.16
2023-01-03T17:40:57.025Z,69.19
2023-01-03T17:43:24.918Z,69.23
2023-01-03T17:46:22.854Z,69.45
2023-01-03T17:49:10.884Z,69.37
2023-01-03T17:51:39.084Z,69.36
2023-01-03T17:54:08.290Z,69.37
2023-01-03T17:56:40.293Z,69.46
2023-01-03T17:59:14.934Z,69.45
2023-01-03T18:01:48.967Z,69.59
2023-01-03T18:04:17.046Z,69.55
2023-01-03T18:06:47.380Z,69.46
2023-01-03T18:09:27.960Z,69.52
2023-01-03T18:11:55.952Z,69.50
2023-01-03T18:14:27.358Z,69.57
2023-01-03T18:16:55.597Z,69.55
2023-01-03T18:19:25.482Z,69.70
2023-01-03T18:21:55.092Z,69.64
2023-01-03T18:24:28.741Z,69.66
2023-01-03T18:33:25.753Z,69.61
2023-01-03T18:35:56.217Z,69.71
2023-01-03T18:38:27.997Z,69.63
2023-01-03T18:41:00.767Z,69.65
2023-01-03T18:43:33.281Z,69.78
2023-01-03T18:46:04.171Z,69.81
2023-01-03T18:48:32.743Z,69.73
2023-01-03T18:51:06.167Z,69.74
2023-01-03T18:53:41.403Z,69.72
2023-01-03T18:56:19.415Z,69.68
2023-01-03T18:59:01.670Z,69.67
2023-01-03T19:01:43.156Z,69.73
2023-01-03T19:04:11.846Z,69.87
2023-01-03T19:06:41.679Z,69.89
2023-01-03T19:09:13.690Z,69.88
2023-01-03T19:11:47.561Z,69.82
2023-01-03T19:14:15.642Z,69.86
2023-01-03T19:16:44.219Z,69.78
2023-01-03T19:19:14.590Z,69.68
2023-01-03T19:21:46.368Z,69.74
2023-01-03T19:24:21.622Z,69.87
2023-01-03T19:26:52.974Z,69.79
2023-01-03T19:29:28.014Z,69.74
2023-01-03T19:31:59.256Z,69.79
2023-01-03T19:34:27.323Z,69.70
2023-01-03T19:36:55.406Z,69.79
2023-01-03T19:39:26.670Z,69.82
2023-01-03T19:45:14.686Z,69.77
2023-01-03T19:47:42.770Z,69.81
2023-01-03T19:50:23.223Z,70.00
2023-01-03T19:52:52.756Z,69.99
2023-01-03T19:55:24.929Z,69.97
2023-01-03T19:57:53.329Z,69.89
2023-01-03T20:00:23.827Z,69.91
2023-01-03T20:02:52.995Z,69.95
2023-01-03T20:05:22.781Z,70.02
2023-01-03T20:07:51.664Z,69.99
2023-01-03T20:10:21.562Z,69.97
2023-01-03T20:12:52.652Z,69.86
2023-01-03T20:15:22.336Z,69.91
2023-01-03T20:17:52.312Z,69.89
2023-01-03T20:20:20.639Z,69.74
2023-01-03T20:23:06.777Z,69.80
2023-01-03T20:25:38.846Z,69.82
2023-01-03T20:28:16.238Z,69.88
2023-01-03T20:30:44.499Z,69.88
2023-01-03T20:33:14.133Z,69.77
2023-01-03T20:38:29.918Z,69.89
2023-01-03T20:40:57.787Z,69.90
2023-01-03T20:43:26.422Z,69.91
2023-01-03T20:45:55.524Z,70.13
2023-01-03T20:48:26.143Z,70.10
2023-01-03T20:50:56.636Z,69.88
2023-01-03T20:53:26.613Z,70.12
2023-01-03T20:55:54.664Z,70.11
2023-01-03T20:58:24.947Z,70.09
2023-01-03T21:01:04.059Z,70.08
2023-01-03T21:03:32.869Z,70.01
2023-01-03T21:06:00.752Z,70.12
2023-01-03T21:08:48.565Z,70.06
2023-01-03T21:11:16.487Z,70.04
2023-01-03T21:13:44.189Z,70.12
2023-01-03T21:16:18.952Z,70.09
2023-01-03T21:18:50.384Z,70.02
2023-01-03T21:21:19.274Z,70.15
2023-01-03T21:23:49.019Z,70.11
2023-01-03T21:26:17.148Z,70.16
2023-01-03T21:28:44.859Z,70.21
2023-01-03T21:31:16.683Z,70.11
2023-01-03T21:33:50.081Z,70.19
2023-01-03T21:36:23.427Z,70.20
2023-01-03T21:38:52.687Z,70.17
2023-01-03T21:41:26.903Z,70.26
2023-01-03T21:43:55.537Z,70.32
2023-01-03T21:46:27.974Z,70.32
2023-01-03T21:48:56.424Z,70.22
2023-01-03T21:51:41.604Z,70.19
2023-01-03T21:54:09.900Z,70.12
2023-01-03T21:56:44.426Z,70.15
2023-01-03T21:59:12.686Z,70.26
2023-01-03T22:01:55.551Z,70.15
2023-01-03T22:04:23.893Z,70.17
2023-01-03T22:07:00.016Z,70.19
2023-01-03T22:09:46.278Z,70.11
2023-01-03T22:12:15.791Z,70.26
2023-01-03T22:15:02.246Z,70.25
2023-01-03T22:17:29.985Z,70.30
2023-01-03T22:19:59.059Z,70.26
2023-01-03T22:22:27.377Z,70.34
2023-01-03T22:24:55.064Z,70.26
2023-01-03T22:27:23.253Z,70.14
2023-01-03T22:29:51.403Z,70.17
2023-01-03T22:32:24.069Z,70.18
2023-01-03T22:34:54.805Z,70.22
2023-01-03T22:37:23.530Z,70.20
2023-01-03T22:39:51.250Z,70.16
2023-01-03T22:42:26.316Z,70.19
2023-01-03T22:44:54.189Z,70.19
2023-01-03T22:47:22.001Z,70.29
2023-01-03T22:49:51.387Z,70.13
2023-01-03T22:52:20.561Z,70.28
2023-01-03T22:54:48.577Z,70.08
2023-01-03T22:57:20.977Z,70.06
2023-01-03T22:59:48.657Z,70.25
2023-01-03T23:02:28.137Z,70.17
2023-01-03T23:04:56.949Z,70.28
2023-01-03T23:07:27.445Z,70.20
2023-01-03T23:09:55.169Z,70.10
2023-01-03T23:12:41.459Z,70.22
2023-01-03T23:15:09.722Z,70.22
2023-01-03T23:17:56.827Z,70.16
2023-01-03T23:20:29.049Z,70.24
2023-01-03T23:23:00.105Z,70.17
2023-01-03T23:25:28.137Z,70.19
2023-01-03T23:27:55.908Z,70.18
2023-01-03T23:30:23.692Z,70.26
2023-01-03T23:32:51.511Z,70.16
2023-01-03T23:35:19.813Z,70.19
2023-01-03T23:37:47.562Z,70.03
2023-01-03T23:40:15.336Z,70.20
2023-01-03T23:42:45.183Z,70.17
2023-01-03T23:45:13.051Z,70.11
2023-01-03T23:47:40.729Z,70.19
2023-01-03T23:50:09.219Z,70.12
2023-01-03T23:52:37.226Z,70.19
2023-01-03T23:55:12.124Z,70.05
2023-01-03T23:57:41.063Z,70.21
